KHFF/HFF METAR and TAF weather

Enter ICAO airport designator
Station Type Date Time Source
KHFF METAR 2019/04/18 09:56 UTC NOAA

KHFF 180956Z AUTO 21006KT 10SM BKN150 BKN190 16/13 A3003 RMK AO2 SLP182 T01580126


Station Type Date Time Source
KHFF Decoded METAR 2019/04/18 09:56 UTC NOAA

Mackall U. S. Army Airfield, NC, United States (KHFF) 35-02N 079-30W
Apr 18, 2019 - 05:56 AM EDT / 2019.04.18 0956 UTC
Wind: from the SSW (210 degrees) at 7 MPH (6 KT):0
Visibility: 10 mile(s):0
Sky conditions: mostly cloudy
Temperature: 60.4 F (15.8 C)
Dew Point: 54.7 F (12.6 C)
Relative Humidity: 81%
Pressure (altimeter): 30.03 in. Hg (1016 hPa)
ob: KHFF 180956Z AUTO 21006KT 10SM BKN150 BKN190 16/13 A3003 RMK AO2 SLP182 T01580126
cycle: 10

Station Type Date Time Source
KHFF TAF UTC NOAA

Error!

Example: see airport list